sensor_id;sensor_type;location;lat;lon;timestamp;temperature;humidity
42095;DHT22;27753;55.724;37.612;2023-08-08T00:04:43;26.70;63.90
42095;DHT22;27753;55.724;37.612;2023-08-08T00:07:09;24.10;73.80
42095;DHT22;27753;55.724;37.612;2023-08-08T00:09:35;23.80;73.70
42095;DHT22;27753;55.724;37.612;2023-08-08T00:12:01;23.70;73.50
42095;DHT22;27753;55.724;37.612;2023-08-08T00:14:27;23.70;73.70
42095;DHT22;27753;55.724;37.612;2023-08-08T00:16:52;23.70;73.80
42095;DHT22;27753;55.724;37.612;2023-08-08T00:19:18;23.70;73.90
42095;DHT22;27753;55.724;37.612;2023-08-08T00:21:44;23.70;73.90
42095;DHT22;27753;55.724;37.612;2023-08-08T00:24:10;23.70;73.80
42095;DHT22;27753;55.724;37.612;2023-08-08T00:26:36;23.80;73.70
42095;DHT22;27753;55.724;37.612;2023-08-08T00:29:02;23.70;73.70
42095;DHT22;27753;55.724;37.612;2023-08-08T00:31:28;23.70;73.50
42095;DHT22;27753;55.724;37.612;2023-08-08T00:33:54;23.70;73.60
42095;DHT22;27753;55.724;37.612;2023-08-08T00:36:19;23.70;73.80
42095;DHT22;27753;55.724;37.612;2023-08-08T00:38:45;23.70;73.60
42095;DHT22;27753;55.724;37.612;2023-08-08T00:41:11;23.70;73.70
42095;DHT22;27753;55.724;37.612;2023-08-08T00:43:37;23.70;73.80
42095;DHT22;27753;55.724;37.612;2023-08-08T00:46:03;23.60;73.80
42095;DHT22;27753;55.724;37.612;2023-08-08T00:48:29;23.50;74.10
42095;DHT22;27753;55.724;37.612;2023-08-08T00:50:55;23.50;74.50
42095;DHT22;27753;55.724;37.612;2023-08-08T00:53:21;23.50;74.50
42095;DHT22;27753;55.724;37.612;2023-08-08T00:55:48;23.50;74.30
42095;DHT22;27753;55.724;37.612;2023-08-08T00:58:15;23.50;74.00
42095;DHT22;27753;55.724;37.612;2023-08-08T01:00:41;23.40;74.90
42095;DHT22;27753;55.724;37.612;2023-08-08T01:03:07;23.50;75.00
42095;DHT22;27753;55.724;37.612;2023-08-08T01:05:46;23.50;74.90
42095;DHT22;27753;55.724;37.612;2023-08-08T01:08:16;23.50;74.80
42095;DHT22;27753;55.724;37.612;2023-08-08T01:10:45;23.50;75.40
42095;DHT22;27753;55.724;37.612;2023-08-08T01:13:16;23.40;76.20
42095;DHT22;27753;55.724;37.612;2023-08-08T01:15:44;23.30;77.00
42095;DHT22;27753;55.724;37.612;2023-08-08T01:18:12;23.00;78.10
42095;DHT22;27753;55.724;37.612;2023-08-08T01:20:40;22.80;79.90
42095;DHT22;27753;55.724;37.612;2023-08-08T01:25:39;22.60;80.80
42095;DHT22;27753;55.724;37.612;2023-08-08T01:28:06;22.50;81.00
42095;DHT22;27753;55.724;37.612;2023-08-08T01:30:32;22.50;80.70
42095;DHT22;27753;55.724;37.612;2023-08-08T01:32:58;22.50;80.90
42095;DHT22;27753;55.724;37.612;2023-08-08T01:35:28;22.60;80.50
42095;DHT22;27753;55.724;37.612;2023-08-08T01:38:00;22.70;80.40
42095;DHT22;27753;55.724;37.612;2023-08-08T01:40:29;22.70;80.40
42095;DHT22;27753;55.724;37.612;2023-08-08T01:42:56;22.70;80.50
42095;DHT22;27753;55.724;37.612;2023-08-08T01:45:22;22.80;79.60
42095;DHT22;27753;55.724;37.612;2023-08-08T01:47:51;22.80;79.30
42095;DHT22;27753;55.724;37.612;2023-08-08T01:50:17;22.80;80.50
42095;DHT22;27753;55.724;37.612;2023-08-08T01:52:43;22.90;79.80
42095;DHT22;27753;55.724;37.612;2023-08-08T01:55:09;22.90;79.20
42095;DHT22;27753;55.724;37.612;2023-08-08T01:57:35;23.00;78.80
42095;DHT22;27753;55.724;37.612;2023-08-08T02:00:01;23.00;78.40
42095;DHT22;27753;55.724;37.612;2023-08-08T02:02:29;23.00;77.60
42095;DHT22;27753;55.724;37.612;2023-08-08T02:04:55;23.00;78.10
42095;DHT22;27753;55.724;37.612;2023-08-08T02:07:21;23.00;77.60
42095;DHT22;27753;55.724;37.612;2023-08-08T02:09:47;23.10;77.30
42095;DHT22;27753;55.724;37.612;2023-08-08T02:12:13;23.00;77.40
42095;DHT22;27753;55.724;37.612;2023-08-08T02:14:38;23.00;77.40
42095;DHT22;27753;55.724;37.612;2023-08-08T02:17:04;23.00;77.20
42095;DHT22;27753;55.724;37.612;2023-08-08T02:19:30;23.00;77.30
42095;DHT22;27753;55.724;37.612;2023-08-08T02:21:56;23.00;76.70
42095;DHT22;27753;55.724;37.612;2023-08-08T02:24:22;23.00;77.00
42095;DHT22;27753;55.724;37.612;2023-08-08T02:26:48;23.00;77.80
42095;DHT22;27753;55.724;37.612;2023-08-08T02:29:14;22.80;78.40
42095;DHT22;27753;55.724;37.612;2023-08-08T02:31:40;22.60;79.70
42095;DHT22;27753;55.724;37.612;2023-08-08T02:34:06;22.40;81.20
42095;DHT22;27753;55.724;37.612;2023-08-08T02:36:31;22.20;81.60
42095;DHT22;27753;55.724;37.612;2023-08-08T02:38:58;22.20;81.50
42095;DHT22;27753;55.724;37.612;2023-08-08T02:41:24;22.10;82.00
42095;DHT22;27753;55.724;37.612;2023-08-08T02:43:50;22.10;82.20
42095;DHT22;27753;55.724;37.612;2023-08-08T02:46:16;22.20;82.10
42095;DHT22;27753;55.724;37.612;2023-08-08T02:48:42;22.20;81.20
42095;DHT22;27753;55.724;37.612;2023-08-08T02:51:08;22.30;80.70
42095;DHT22;27753;55.724;37.612;2023-08-08T02:53:33;22.30;80.90
42095;DHT22;27753;55.724;37.612;2023-08-08T02:55:59;22.40;81.50
42095;DHT22;27753;55.724;37.612;2023-08-08T02:58:25;22.50;79.70
42095;DHT22;27753;55.724;37.612;2023-08-08T03:00:51;22.60;79.90
42095;DHT22;27753;55.724;37.612;2023-08-08T03:03:18;22.70;79.20
42095;DHT22;27753;55.724;37.612;2023-08-08T03:05:44;22.70;79.50
42095;DHT22;27753;55.724;37.612;2023-08-08T03:08:11;22.80;78.40
42095;DHT22;27753;55.724;37.612;2023-08-08T03:10:37;22.90;78.60
42095;DHT22;27753;55.724;37.612;2023-08-08T03:13:03;23.00;78.40
42095;DHT22;27753;55.724;37.612;2023-08-08T03:15:29;23.10;78.50
42095;DHT22;27753;55.724;37.612;2023-08-08T03:17:55;23.20;78.30
42095;DHT22;27753;55.724;37.612;2023-08-08T03:20:21;23.30;78.20
42095;DHT22;27753;55.724;37.612;2023-08-08T03:22:47;23.30;77.50
42095;DHT22;27753;55.724;37.612;2023-08-08T03:25:13;23.40;77.30
42095;DHT22;27753;55.724;37.612;2023-08-08T03:27:38;23.50;76.50
42095;DHT22;27753;55.724;37.612;2023-08-08T03:30:05;23.50;76.20
42095;DHT22;27753;55.724;37.612;2023-08-08T03:32:31;23.50;75.80
42095;DHT22;27753;55.724;37.612;2023-08-08T03:34:57;23.50;76.50
42095;DHT22;27753;55.724;37.612;2023-08-08T03:37:23;23.50;76.30
42095;DHT22;27753;55.724;37.612;2023-08-08T03:39:49;23.50;75.80
42095;DHT22;27753;55.724;37.612;2023-08-08T03:42:14;23.50;75.60
42095;DHT22;27753;55.724;37.612;2023-08-08T03:44:40;23.60;76.00
42095;DHT22;27753;55.724;37.612;2023-08-08T03:47:06;23.50;75.70
42095;DHT22;27753;55.724;37.612;2023-08-08T03:49:33;23.60;75.20
42095;DHT22;27753;55.724;37.612;2023-08-08T03:51:59;23.60;74.60
42095;DHT22;27753;55.724;37.612;2023-08-08T03:54:24;23.60;74.70
42095;DHT22;27753;55.724;37.612;2023-08-08T03:56:50;23.60;74.70
42095;DHT22;27753;55.724;37.612;2023-08-08T03:59:16;23.60;74.60
42095;DHT22;27753;55.724;37.612;2023-08-08T04:01:42;23.60;74.80
42095;DHT22;27753;55.724;37.612;2023-08-08T04:04:08;23.60;75.20
42095;DHT22;27753;55.724;37.612;2023-08-08T04:06:34;23.60;74.90
42095;DHT22;27753;55.724;37.612;2023-08-08T04:09:00;23.60;74.70
42095;DHT22;27753;55.724;37.612;2023-08-08T04:11:26;23.60;74.90
42095;DHT22;27753;55.724;37.612;2023-08-08T04:13:52;23.50;74.80
42095;DHT22;27753;55.724;37.612;2023-08-08T04:16:18;23.50;75.00
42095;DHT22;27753;55.724;37.612;2023-08-08T04:18:45;23.40;76.00
42095;DHT22;27753;55.724;37.612;2023-08-08T04:21:11;23.30;77.30
42095;DHT22;27753;55.724;37.612;2023-08-08T04:23:37;23.10;78.20
42095;DHT22;27753;55.724;37.612;2023-08-08T04:26:03;23.00;78.40
42095;DHT22;27753;55.724;37.612;2023-08-08T04:28:29;23.00;78.60
42095;DHT22;27753;55.724;37.612;2023-08-08T04:30:54;22.90;78.80
42095;DHT22;27753;55.724;37.612;2023-08-08T04:33:20;22.90;79.10
42095;DHT22;27753;55.724;37.612;2023-08-08T04:35:46;23.00;79.50
42095;DHT22;27753;55.724;37.612;2023-08-08T04:38:14;22.90;79.80
42095;DHT22;27753;55.724;37.612;2023-08-08T04:40:43;23.00;79.80
42095;DHT22;27753;55.724;37.612;2023-08-08T04:43:09;22.90;80.50
42095;DHT22;27753;55.724;37.612;2023-08-08T04:45:35;22.90;79.90
42095;DHT22;27753;55.724;37.612;2023-08-08T04:48:00;22.90;80.60
42095;DHT22;27753;55.724;37.612;2023-08-08T04:50:26;22.80;81.10
42095;DHT22;27753;55.724;37.612;2023-08-08T04:52:53;22.80;81.10
42095;DHT22;27753;55.724;37.612;2023-08-08T04:55:19;22.80;81.10
42095;DHT22;27753;55.724;37.612;2023-08-08T04:57:45;22.90;80.60
42095;DHT22;27753;55.724;37.612;2023-08-08T05:00:11;22.90;80.40
42095;DHT22;27753;55.724;37.612;2023-08-08T05:02:37;22.90;81.00
42095;DHT22;27753;55.724;37.612;2023-08-08T05:05:05;22.90;80.70
42095;DHT22;27753;55.724;37.612;2023-08-08T05:07:31;22.80;81.90
42095;DHT22;27753;55.724;37.612;2023-08-08T05:09:57;22.90;81.50
42095;DHT22;27753;55.724;37.612;2023-08-08T05:12:23;22.90;82.40
42095;DHT22;27753;55.724;37.612;2023-08-08T05:14:48;23.00;81.60
42095;DHT22;27753;55.724;37.612;2023-08-08T05:17:14;23.20;81.30
42095;DHT22;27753;55.724;37.612;2023-08-08T05:19:40;23.50;80.40
42095;DHT22;27753;55.724;37.612;2023-08-08T05:22:06;23.60;79.90
42095;DHT22;27753;55.724;37.612;2023-08-08T05:24:32;23.70;78.90
42095;DHT22;27753;55.724;37.612;2023-08-08T05:26:58;23.70;78.90
42095;DHT22;27753;55.724;37.612;2023-08-08T05:29:23;23.80;79.10
42095;DHT22;27753;55.724;37.612;2023-08-08T05:31:49;23.90;78.60
42095;DHT22;27753;55.724;37.612;2023-08-08T05:34:15;23.90;77.90
42095;DHT22;27753;55.724;37.612;2023-08-08T05:36:41;23.90;77.90
42095;DHT22;27753;55.724;37.612;2023-08-08T05:39:07;23.90;78.20
42095;DHT22;27753;55.724;37.612;2023-08-08T05:41:33;24.00;78.70
42095;DHT22;27753;55.724;37.612;2023-08-08T05:43:59;24.10;78.00
42095;DHT22;27753;55.724;37.612;2023-08-08T05:46:25;24.50;77.60
42095;DHT22;27753;55.724;37.612;2023-08-08T05:48:51;25.50;74.80
42095;DHT22;27753;55.724;37.612;2023-08-08T05:51:17;26.90;71.60
42095;DHT22;27753;55.724;37.612;2023-08-08T05:56:09;28.40;67.50
42095;DHT22;27753;55.724;37.612;2023-08-08T05:58:35;30.30;62.40
42095;DHT22;27753;55.724;37.612;2023-08-08T06:01:03;31.30;59.40
42095;DHT22;27753;55.724;37.612;2023-08-08T06:03:35;31.90;57.20
42095;DHT22;27753;55.724;37.612;2023-08-08T06:06:01;32.20;56.60
42095;DHT22;27753;55.724;37.612;2023-08-08T06:08:27;32.00;55.80
42095;DHT22;27753;55.724;37.612;2023-08-08T06:10:53;31.40;56.40
42095;DHT22;27753;55.724;37.612;2023-08-08T06:13:19;30.50;57.50
42095;DHT22;27753;55.724;37.612;2023-08-08T06:15:45;29.50;59.70
42095;DHT22;27753;55.724;37.612;2023-08-08T06:18:11;28.70;61.10
42095;DHT22;27753;55.724;37.612;2023-08-08T06:20:37;28.00;63.40
42095;DHT22;27753;55.724;37.612;2023-08-08T06:23:03;27.40;64.30
42095;DHT22;27753;55.724;37.612;2023-08-08T06:25:29;26.90;65.40
42095;DHT22;27753;55.724;37.612;2023-08-08T06:27:55;26.40;67.20
42095;DHT22;27753;55.724;37.612;2023-08-08T06:30:21;26.10;68.30
42095;DHT22;27753;55.724;37.612;2023-08-08T06:32:47;26.10;69.40
42095;DHT22;27753;55.724;37.612;2023-08-08T06:35:13;26.20;70.10
42095;DHT22;27753;55.724;37.612;2023-08-08T06:37:42;26.30;69.50
42095;DHT22;27753;55.724;37.612;2023-08-08T06:40:10;26.30;69.50
42095;DHT22;27753;55.724;37.612;2023-08-08T06:42:36;26.30;70.20
42095;DHT22;27753;55.724;37.612;2023-08-08T06:45:02;26.30;69.50
42095;DHT22;27753;55.724;37.612;2023-08-08T06:47:28;26.50;69.10
42095;DHT22;27753;55.724;37.612;2023-08-08T06:49:54;26.60;69.10
42095;DHT22;27753;55.724;37.612;2023-08-08T06:52:21;26.70;68.50
42095;DHT22;27753;55.724;37.612;2023-08-08T06:54:48;26.90;68.50
42095;DHT22;27753;55.724;37.612;2023-08-08T06:57:14;27.40;67.30
42095;DHT22;27753;55.724;37.612;2023-08-08T06:59:40;28.00;66.30
42095;DHT22;27753;55.724;37.612;2023-08-08T07:02:06;29.20;64.40
42095;DHT22;27753;55.724;37.612;2023-08-08T07:04:35;29.90;63.50
42095;DHT22;27753;55.724;37.612;2023-08-08T07:07:01;30.80;60.30
42095;DHT22;27753;55.724;37.612;2023-08-08T07:09:29;31.20;58.60
42095;DHT22;27753;55.724;37.612;2023-08-08T07:11:55;31.00;58.10
42095;DHT22;27753;55.724;37.612;2023-08-08T07:14:22;30.80;58.00
42095;DHT22;27753;55.724;37.612;2023-08-08T07:16:47;30.70;58.30
42095;DHT22;27753;55.724;37.612;2023-08-08T07:19:14;30.60;58.70
42095;DHT22;27753;55.724;37.612;2023-08-08T07:21:41;30.40;59.10
42095;DHT22;27753;55.724;37.612;2023-08-08T07:24:07;30.00;59.60
42095;DHT22;27753;55.724;37.612;2023-08-08T07:26:33;29.80;60.40
42095;DHT22;27753;55.724;37.612;2023-08-08T07:29:02;29.80;60.60
42095;DHT22;27753;55.724;37.612;2023-08-08T07:31:32;29.70;60.50
42095;DHT22;27753;55.724;37.612;2023-08-08T07:33:57;29.40;61.50
42095;DHT22;27753;55.724;37.612;2023-08-08T07:36:24;29.00;61.60
42095;DHT22;27753;55.724;37.612;2023-08-08T07:38:50;28.70;62.00
42095;DHT22;27753;55.724;37.612;2023-08-08T07:41:16;28.90;62.50
42095;DHT22;27753;55.724;37.612;2023-08-08T07:43:45;29.50;61.30
42095;DHT22;27753;55.724;37.612;2023-08-08T07:46:11;30.40;60.40
42095;DHT22;27753;55.724;37.612;2023-08-08T07:48:37;31.50;58.10
42095;DHT22;27753;55.724;37.612;2023-08-08T07:51:03;31.70;56.60
42095;DHT22;27753;55.724;37.612;2023-08-08T07:53:28;31.20;57.10
42095;DHT22;27753;55.724;37.612;2023-08-08T07:55:54;30.70;57.80
42095;DHT22;27753;55.724;37.612;2023-08-08T07:58:20;30.30;58.70
42095;DHT22;27753;55.724;37.612;2023-08-08T08:00:48;29.50;59.80
42095;DHT22;27753;55.724;37.612;2023-08-08T08:03:14;28.90;61.30
42095;DHT22;27753;55.724;37.612;2023-08-08T08:05:40;28.40;62.50
42095;DHT22;27753;55.724;37.612;2023-08-08T08:08:06;28.20;63.60
42095;DHT22;27753;55.724;37.612;2023-08-08T08:10:35;28.00;63.80
42095;DHT22;27753;55.724;37.612;2023-08-08T08:13:01;28.10;64.50
42095;DHT22;27753;55.724;37.612;2023-08-08T08:15:28;28.20;64.30
42095;DHT22;27753;55.724;37.612;2023-08-08T08:17:54;28.20;63.80
42095;DHT22;27753;55.724;37.612;2023-08-08T08:20:20;28.10;64.30
42095;DHT22;27753;55.724;37.612;2023-08-08T08:22:46;27.90;64.90
42095;DHT22;27753;55.724;37.612;2023-08-08T08:25:13;27.70;65.70
42095;DHT22;27753;55.724;37.612;2023-08-08T08:27:39;27.60;66.00
42095;DHT22;27753;55.724;37.612;2023-08-08T08:30:07;27.60;66.10
42095;DHT22;27753;55.724;37.612;2023-08-08T08:32:37;27.30;66.50
42095;DHT22;27753;55.724;37.612;2023-08-08T08:35:03;27.10;67.30
42095;DHT22;27753;55.724;37.612;2023-08-08T08:37:30;27.00;67.70
42095;DHT22;27753;55.724;37.612;2023-08-08T08:39:56;27.00;67.70
42095;DHT22;27753;55.724;37.612;2023-08-08T08:42:22;27.20;67.70
42095;DHT22;27753;55.724;37.612;2023-08-08T08:44:50;27.30;67.30
42095;DHT22;27753;55.724;37.612;2023-08-08T08:47:19;27.40;67.50
42095;DHT22;27753;55.724;37.612;2023-08-08T08:49:45;27.70;67.10
42095;DHT22;27753;55.724;37.612;2023-08-08T08:52:12;27.80;66.30
42095;DHT22;27753;55.724;37.612;2023-08-08T08:54:38;27.80;67.10
42095;DHT22;27753;55.724;37.612;2023-08-08T08:57:04;27.90;66.90
42095;DHT22;27753;55.724;37.612;2023-08-08T08:59:30;28.20;66.50
42095;DHT22;27753;55.724;37.612;2023-08-08T09:01:56;28.30;65.80
42095;DHT22;27753;55.724;37.612;2023-08-08T09:04:28;29.40;65.40
42095;DHT22;27753;55.724;37.612;2023-08-08T09:06:55;31.50;60.60
42095;DHT22;27753;55.724;37.612;2023-08-08T09:09:21;33.00;57.00
42095;DHT22;27753;55.724;37.612;2023-08-08T09:11:52;33.50;55.10
42095;DHT22;27753;55.724;37.612;2023-08-08T09:14:22;34.30;53.90
42095;DHT22;27753;55.724;37.612;2023-08-08T09:16:50;34.50;53.00
42095;DHT22;27753;55.724;37.612;2023-08-08T09:19:18;34.00;53.60
42095;DHT22;27753;55.724;37.612;2023-08-08T09:21:45;33.60;53.80
42095;DHT22;27753;55.724;37.612;2023-08-08T09:24:11;33.60;54.50
42095;DHT22;27753;55.724;37.612;2023-08-08T09:26:38;34.50;53.20
42095;DHT22;27753;55.724;37.612;2023-08-08T09:29:04;35.00;51.60
42095;DHT22;27753;55.724;37.612;2023-08-08T09:31:31;35.50;50.90
42095;DHT22;27753;55.724;37.612;2023-08-08T09:34:01;35.80;49.90
42095;DHT22;27753;55.724;37.612;2023-08-08T09:36:27;35.70;49.50
42095;DHT22;27753;55.724;37.612;2023-08-08T09:38:54;35.20;50.40
42095;DHT22;27753;55.724;37.612;2023-08-08T09:41:20;34.90;51.60
42095;DHT22;27753;55.724;37.612;2023-08-08T09:43:51;34.50;51.20
42095;DHT22;27753;55.724;37.612;2023-08-08T09:46:21;33.90;52.10
42095;DHT22;27753;55.724;37.612;2023-08-08T09:51:15;31.80;55.00
42095;DHT22;27753;55.724;37.612;2023-08-08T09:53:42;31.10;57.20
42095;DHT22;27753;55.724;37.612;2023-08-08T09:56:09;30.80;58.40
42095;DHT22;27753;55.724;37.612;2023-08-08T09:58:36;30.90;58.90
42095;DHT22;27753;55.724;37.612;2023-08-08T10:01:02;30.90;59.20
42095;DHT22;27753;55.724;37.612;2023-08-08T10:03:31;30.90;58.00
42095;DHT22;27753;55.724;37.612;2023-08-08T10:05:58;30.90;57.60
42095;DHT22;27753;55.724;37.612;2023-08-08T10:08:24;30.90;58.10
42095;DHT22;27753;55.724;37.612;2023-08-08T10:10:50;31.20;57.40
42095;DHT22;27753;55.724;37.612;2023-08-08T10:13:25;31.60;56.70
42095;DHT22;27753;55.724;37.612;2023-08-08T10:15:52;31.80;56.60
42095;DHT22;27753;55.724;37.612;2023-08-08T10:18:21;31.80;55.70
42095;DHT22;27753;55.724;37.612;2023-08-08T10:20:48;31.70;56.10
42095;DHT22;27753;55.724;37.612;2023-08-08T10:23:15;31.80;56.80
42095;DHT22;27753;55.724;37.612;2023-08-08T10:25:46;31.90;56.10
42095;DHT22;27753;55.724;37.612;2023-08-08T10:28:14;31.70;56.30
42095;DHT22;27753;55.724;37.612;2023-08-08T10:30:48;31.70;56.50
42095;DHT22;27753;55.724;37.612;2023-08-08T10:33:22;31.70;56.30
42095;DHT22;27753;55.724;37.612;2023-08-08T10:36:04;31.50;56.70
42095;DHT22;27753;55.724;37.612;2023-08-08T10:38:49;30.80;57.00
42095;DHT22;27753;55.724;37.612;2023-08-08T10:41:17;30.10;58.80
42095;DHT22;27753;55.724;37.612;2023-08-08T10:43:57;29.70;59.80
42095;DHT22;27753;55.724;37.612;2023-08-08T10:49:01;29.50;60.60
42095;DHT22;27753;55.724;37.612;2023-08-08T10:51:53;29.50;60.70
42095;DHT22;27753;55.724;37.612;2023-08-08T10:54:25;29.40;60.80
42095;DHT22;27753;55.724;37.612;2023-08-08T10:56:57;29.20;61.10
42095;DHT22;27753;55.724;37.612;2023-08-08T10:59:36;29.00;61.50
42095;DHT22;27753;55.724;37.612;2023-08-08T11:02:03;28.70;62.40
42095;DHT22;27753;55.724;37.612;2023-08-08T11:04:29;28.50;63.10
42095;DHT22;27753;55.724;37.612;2023-08-08T11:06:56;28.20;63.90
42095;DHT22;27753;55.724;37.612;2023-08-08T11:09:22;28.00;65.10
42095;DHT22;27753;55.724;37.612;2023-08-08T11:11:48;28.00;65.70
42095;DHT22;27753;55.724;37.612;2023-08-08T11:14:16;28.10;65.40
42095;DHT22;27753;55.724;37.612;2023-08-08T11:16:43;28.10;65.60
42095;DHT22;27753;55.724;37.612;2023-08-08T11:19:10;28.20;65.30
42095;DHT22;27753;55.724;37.612;2023-08-08T11:21:41;28.30;64.90
42095;DHT22;27753;55.724;37.612;2023-08-08T11:24:08;28.30;64.40
42095;DHT22;27753;55.724;37.612;2023-08-08T11:26:34;28.30;64.90
42095;DHT22;27753;55.724;37.612;2023-08-08T11:29:01;28.30;64.40
42095;DHT22;27753;55.724;37.612;2023-08-08T11:31:28;28.10;65.20
42095;DHT22;27753;55.724;37.612;2023-08-08T11:33:55;28.00;65.90
42095;DHT22;27753;55.724;37.612;2023-08-08T11:36:21;27.90;65.90
42095;DHT22;27753;55.724;37.612;2023-08-08T11:38:49;27.70;66.70
42095;DHT22;27753;55.724;37.612;2023-08-08T11:41:16;27.60;67.20
42095;DHT22;27753;55.724;37.612;2023-08-08T11:43:44;27.40;67.20
42095;DHT22;27753;55.724;37.612;2023-08-08T11:46:13;27.30;67.60
42095;DHT22;27753;55.724;37.612;2023-08-08T11:48:40;27.30;68.20
42095;DHT22;27753;55.724;37.612;2023-08-08T11:51:07;27.30;68.20
42095;DHT22;27753;55.724;37.612;2023-08-08T11:53:34;27.30;68.00
42095;DHT22;27753;55.724;37.612;2023-08-08T11:56:01;27.30;68.50
42095;DHT22;27753;55.724;37.612;2023-08-08T11:58:29;27.30;68.30
42095;DHT22;27753;55.724;37.612;2023-08-08T12:00:58;27.30;68.70
42095;DHT22;27753;55.724;37.612;2023-08-08T12:03:25;27.50;69.20
42095;DHT22;27753;55.724;37.612;2023-08-08T12:05:52;27.70;68.80
42095;DHT22;27753;55.724;37.612;2023-08-08T12:08:18;27.90;67.90
42095;DHT22;27753;55.724;37.612;2023-08-08T12:10:49;28.20;67.20
42095;DHT22;27753;55.724;37.612;2023-08-08T12:13:23;28.40;66.70
42095;DHT22;27753;55.724;37.612;2023-08-08T12:15:53;28.40;66.10
42095;DHT22;27753;55.724;37.612;2023-08-08T12:18:19;28.40;66.50
42095;DHT22;27753;55.724;37.612;2023-08-08T12:20:45;28.60;66.40
42095;DHT22;27753;55.724;37.612;2023-08-08T12:23:12;28.80;65.80
42095;DHT22;27753;55.724;37.612;2023-08-08T12:25:39;29.00;64.90
42095;DHT22;27753;55.724;37.612;2023-08-08T12:28:05;29.10;64.70
42095;DHT22;27753;55.724;37.612;2023-08-08T12:30:31;29.30;65.20
42095;DHT22;27753;55.724;37.612;2023-08-08T12:32:57;29.50;64.40
42095;DHT22;27753;55.724;37.612;2023-08-08T12:35:23;29.60;64.10
42095;DHT22;27753;55.724;37.612;2023-08-08T12:37:52;29.60;64.10
42095;DHT22;27753;55.724;37.612;2023-08-08T12:40:18;29.60;63.70
42095;DHT22;27753;55.724;37.612;2023-08-08T12:42:44;29.50;64.00
42095;DHT22;27753;55.724;37.612;2023-08-08T12:45:10;29.40;63.80
42095;DHT22;27753;55.724;37.612;2023-08-08T12:47:39;29.40;64.30
42095;DHT22;27753;55.724;37.612;2023-08-08T12:50:05;29.30;64.50
42095;DHT22;27753;55.724;37.612;2023-08-08T12:52:31;29.30;64.80
42095;DHT22;27753;55.724;37.612;2023-08-08T12:54:57;29.30;64.50
42095;DHT22;27753;55.724;37.612;2023-08-08T12:57:23;29.10;65.00
42095;DHT22;27753;55.724;37.612;2023-08-08T12:59:50;29.10;65.40
42095;DHT22;27753;55.724;37.612;2023-08-08T13:02:16;29.30;65.60
42095;DHT22;27753;55.724;37.612;2023-08-08T13:04:42;29.40;64.70
42095;DHT22;27753;55.724;37.612;2023-08-08T13:07:08;29.30;64.50
42095;DHT22;27753;55.724;37.612;2023-08-08T13:09:34;29.00;65.00
42095;DHT22;27753;55.724;37.612;2023-08-08T13:12:00;28.80;65.40
42095;DHT22;27753;55.724;37.612;2023-08-08T13:14:26;28.60;65.50
42095;DHT22;27753;55.724;37.612;2023-08-08T13:16:52;28.20;66.40
42095;DHT22;27753;55.724;37.612;2023-08-08T13:19:19;28.00;66.80
42095;DHT22;27753;55.724;37.612;2023-08-08T13:21:51;28.00;67.00
42095;DHT22;27753;55.724;37.612;2023-08-08T13:24:17;28.10;66.90
42095;DHT22;27753;55.724;37.612;2023-08-08T13:26:43;28.20;66.30
42095;DHT22;27753;55.724;37.612;2023-08-08T13:29:09;28.30;66.90
42095;DHT22;27753;55.724;37.612;2023-08-08T13:31:35;28.40;66.50
42095;DHT22;27753;55.724;37.612;2023-08-08T13:34:01;28.50;66.00
42095;DHT22;27753;55.724;37.612;2023-08-08T13:36:26;28.40;66.50
42095;DHT22;27753;55.724;37.612;2023-08-08T13:38:52;28.50;66.10
42095;DHT22;27753;55.724;37.612;2023-08-08T13:41:18;28.70;65.80
42095;DHT22;27753;55.724;37.612;2023-08-08T13:43:44;28.90;65.90
42095;DHT22;27753;55.724;37.612;2023-08-08T13:46:10;29.10;65.20
42095;DHT22;27753;55.724;37.612;2023-08-08T13:48:36;29.30;65.40
42095;DHT22;27753;55.724;37.612;2023-08-08T13:51:02;29.40;64.20
42095;DHT22;27753;55.724;37.612;2023-08-08T13:53:29;29.40;64.00
42095;DHT22;27753;55.724;37.612;2023-08-08T13:55:55;29.20;64.20
42095;DHT22;27753;55.724;37.612;2023-08-08T13:58:21;29.20;64.60
42095;DHT22;27753;55.724;37.612;2023-08-08T14:00:51;29.30;65.00
42095;DHT22;27753;55.724;37.612;2023-08-08T14:03:17;29.30;64.50
42095;DHT22;27753;55.724;37.612;2023-08-08T14:05:43;29.40;64.50
42095;DHT22;27753;55.724;37.612;2023-08-08T14:08:09;29.30;64.90
42095;DHT22;27753;55.724;37.612;2023-08-08T14:10:36;29.40;64.90
42095;DHT22;27753;55.724;37.612;2023-08-08T14:13:02;29.70;63.60
42095;DHT22;27753;55.724;37.612;2023-08-08T14:15:28;29.80;63.00
42095;DHT22;27753;55.724;37.612;2023-08-08T14:17:55;29.80;62.90
42095;DHT22;27753;55.724;37.612;2023-08-08T14:20:21;29.80;62.90
42095;DHT22;27753;55.724;37.612;2023-08-08T14:22:47;29.60;63.20
42095;DHT22;27753;55.724;37.612;2023-08-08T14:25:13;29.40;63.70
42095;DHT22;27753;55.724;37.612;2023-08-08T14:27:39;29.30;64.20
42095;DHT22;27753;55.724;37.612;2023-08-08T14:30:06;29.30;64.20
42095;DHT22;27753;55.724;37.612;2023-08-08T14:32:32;29.30;64.90
42095;DHT22;27753;55.724;37.612;2023-08-08T14:34:58;29.20;64.50
42095;DHT22;27753;55.724;37.612;2023-08-08T14:37:25;29.00;64.90
42095;DHT22;27753;55.724;37.612;2023-08-08T14:39:51;29.20;64.80
42095;DHT22;27753;55.724;37.612;2023-08-08T14:42:16;29.20;64.60
42095;DHT22;27753;55.724;37.612;2023-08-08T14:44:43;29.30;64.60
42095;DHT22;27753;55.724;37.612;2023-08-08T14:47:09;29.30;64.80
42095;DHT22;27753;55.724;37.612;2023-08-08T14:49:35;29.00;65.20
42095;DHT22;27753;55.724;37.612;2023-08-08T14:52:01;28.90;65.30
42095;DHT22;27753;55.724;37.612;2023-08-08T14:54:26;28.80;66.00
42095;DHT22;27753;55.724;37.612;2023-08-08T14:56:52;28.60;66.20
42095;DHT22;27753;55.724;37.612;2023-08-08T14:59:18;28.60;66.40
42095;DHT22;27753;55.724;37.612;2023-08-08T15:01:44;28.40;66.30
42095;DHT22;27753;55.724;37.612;2023-08-08T15:04:11;28.30;66.90
42095;DHT22;27753;55.724;37.612;2023-08-08T15:06:37;28.20;67.40
42095;DHT22;27753;55.724;37.612;2023-08-08T15:09:04;28.10;68.30
42095;DHT22;27753;55.724;37.612;2023-08-08T15:11:30;28.10;68.90
42095;DHT22;27753;55.724;37.612;2023-08-08T15:13:56;28.00;68.90
42095;DHT22;27753;55.724;37.612;2023-08-08T15:16:22;28.20;68.70
42095;DHT22;27753;55.724;37.612;2023-08-08T15:18:48;28.40;68.20
42095;DHT22;27753;55.724;37.612;2023-08-08T15:21:14;28.50;67.70
42095;DHT22;27753;55.724;37.612;2023-08-08T15:23:45;28.40;68.40
42095;DHT22;27753;55.724;37.612;2023-08-08T15:26:12;28.20;69.70